General Heriberto Jara International Airport
MMVR : now visible

Airfield :











YOU CAN JOIN US ON...

 
LOGIN :

Register | Disclaimer

   EN    FR    IT 

 









Legend :    VFR   Marginal VFR   IFR   Intensive IFR   Very Intensive IFR
Visi :
Ceiling :
>= 8 km
>= 3000ft
5 to 8 km
1000 to 3000 ft
1500m to 5 km
500 to 1000 ft
800 to 1500m
200 to 500 ft
< 800m
< 200 ft
Symbols :   Thunderstorms  Fog  Heavy snow  Heavy precipitations  Wind > 20 kt






- Airport Elevation : 90 ft
- IATA code : VER


MMVR - General Heriberto Jara International

CURRENT METAR :
  • 121944Z 01011KT 7SM SCT030 BKN070 BKN250 25/18 A3009 RMK 8/558 HZY

EXPIRED METARs :
  • 121843Z 35010KT 7SM SCT070 BKN250 25/17 A3012 RMK 8/038 HZY
  • 121744Z 36005KT 7SM SCT030 BKN070 BKN250 26/17 A3016 RMK SLP182 57023 980 8/538 HZY

TAF TAF MMVR
Valid from the 12 at 18:00 until the 13 at 18:00 UTC


121618Z 1218/1318 35010KT P6SM SCT020 OVC070 TX26/1220Z TN19/1312Z
FM130300 00000KT 5SM HZ SCT015 BKN080
TEMPO 1312/1316 3SM BR BKN015



MET'MAP, your aeronautical weather chart ! - Copyright ORBIFLY December 2007 - Disclaimer

ORBIFLY MET'MAP TEAM :

Programming & Development : Alexandra Zaïnal
Concept & original design : Baudouin d'Aumeries
Assistance for programming : Marc-Olivier Méhu
Technical & hardware support : Manuel Goepfert

Contact : metmap@orbifly.com




SOURCES & CREDITS :

   NOAA       Earth
Advisory